This is the latest recevied weather packets stored in our database for station/object G7TKI-13. If no packets are shown the sender has not sent any weather packets the latest 10 day(s).
| Time | Temp. | Humidity | Pressure | Rain* | Wind** | Luminosity | Snow |
|---|---|---|---|---|---|---|---|
| 1777839870 | 13.33° C | 81% | 1014 hPa | 0 mm | - | 0 W/m² | - |
| 1777838046 | 14.44° C | 75% | 1013.6 hPa | 0 mm | - | 0 W/m² | - |
| 1777836829 | 15° C | 73% | 1013.5 hPa | 0 mm | - | 2 W/m² | - |
| 1777835638 | 15.56° C | 70% | 1013.3 hPa | 0 mm | - | 9 W/m² | - |
| 1777833217 | 17.22° C | 65% | 1013 hPa | 0 mm | - | 40 W/m² | - |
| 1777831981 | 18.33° C | 63% | 1012.9 hPa | 0 mm | - | 60 W/m² | - |
| 1777828335 | 19.44° C | 60% | 1012.7 hPa | 0 mm | - | 150 W/m² | - |
| 1777825855 | 20° C | 57% | 1012.6 hPa | 0 mm | - | 264 W/m² | - |
| 1777825181 | 20° C | 59% | 1012.7 hPa | 0 mm | - | 137 W/m² | - |
| 1777820087 | 20.56° C | 56% | 1012.4 hPa | 0 mm | - | 202 W/m² | - |
| 1777807950 | 20.56° C | 59% | 1013.3 hPa | 0 mm | - | 474 W/m² | - |
| 1777798955 | 17.22° C | 70% | 1013.1 hPa | 0 mm | - | 274 W/m² | - |
| 1777798344 | 17.78° C | 69% | 1013.1 hPa | 0 mm | - | 503 W/m² | - |
| 1777795302 | 16.11° C | 75% | 1013.1 hPa | 0 mm | - | 124 W/m² | - |
| 1777790482 | 12.78° C | 91% | 1013.1 hPa | 0 mm | - | 82 W/m² | - |
| 1777789874 | 12.78° C | 93% | 1012.9 hPa | 0 mm | - | 72 W/m² | - |
| 1777785902 | 11.67° C | 96% | 1012.7 hPa | 0 mm | - | 17 W/m² | - |
| 1777779853 | 11.11° C | 95% | 1013.1 hPa | 0 mm | - | 0 W/m² | - |
| 1777778637 | 11.11° C | 95% | 1013.2 hPa | 0 mm | - | 0 W/m² | - |
| 1777773182 | 11.67° C | 93% | 1013.6 hPa | 0 mm | - | 0 W/m² | - |
| 1777772563 | 11.67° C | 93% | 1013.6 hPa | 0 mm | - | 0 W/m² | - |
| 1777770154 | 11.67° C | 94% | 1013.8 hPa | 0 mm | - | 0 W/m² | - |
| 1777767725 | 11.11° C | 93% | 1014.4 hPa | 0 mm | - | 0 W/m² | - |
| 1777765300 | 11.67° C | 93% | 1014.5 hPa | 0 mm | - | 0 W/m² | - |
| 1777762898 | 11.67° C | 92% | 1014.7 hPa | 0 mm | - | 0 W/m² | - |
* Rain latest hour (hover to see other rain measurements)
** Current wind speed in m/s (hover to see current wind gust speed)